Terminal Aerodrome Forecast
Issued by NWS

Home | Current Version | Previous Version | Text Only | Print | Product List | Glossary On
Versions: 1 2 3 4 5 6 7 8 9 10 11 12 13 14 15 16 17
000
FTUS44 KOHX 210200 AAA
TAFCKV
TAF AMD
KCKV 210225Z 2102/2124 22007KT P6SM SCT060 SCT100
     FM210700 32003KT P6SM SKC
      TEMPO 2109/2112 3SM BR
     FM211500 34008KT P6SM SCT040=

USA.gov is the U.S. government's official web portal to all federal, state and local government web resources and services.